createdAt,value
2023-02-14T00:00:11.814Z,10.63
2023-02-14T00:03:37.783Z,16.03
2023-02-14T00:06:37.812Z,15.77
2023-02-14T00:10:01.834Z,13.80
2023-02-14T00:13:01.791Z,14.20
2023-02-14T00:16:04.428Z,12.05
2023-02-14T00:19:17.801Z,14.33
2023-02-14T00:22:30.833Z,11.37
2023-02-14T00:25:31.842Z,12.40
2023-02-14T00:28:43.831Z,13.10
2023-02-14T00:32:08.924Z,14.77
2023-02-14T00:35:34.922Z,12.73
2023-02-14T00:38:46.852Z,15.07
2023-02-14T00:41:59.891Z,11.43
2023-02-14T00:44:59.901Z,14.40
2023-02-14T00:48:13.009Z,14.23
2023-02-14T00:51:26.964Z,11.77
2023-02-14T00:54:39.941Z,15.63
2023-02-14T00:57:40.929Z,13.03
2023-02-14T01:00:53.012Z,13.47
2023-02-14T01:04:04.977Z,12.55
2023-02-14T01:07:31.002Z,12.30
2023-02-14T01:10:44.070Z,13.97
2023-02-14T01:14:08.071Z,15.55
2023-02-14T01:17:07.966Z,14.83
2023-02-14T01:20:39.022Z,13.50
2023-02-14T01:23:53.020Z,11.93
2023-02-14T01:27:05.041Z,14.20
2023-02-14T01:30:05.065Z,13.65
2023-02-14T01:33:17.082Z,12.00
2023-02-14T01:36:29.033Z,15.15
2023-02-14T01:39:55.060Z,14.07
2023-02-14T01:43:07.086Z,16.53
2023-02-14T01:46:20.077Z,12.97
2023-02-14T01:49:32.079Z,14.77
2023-02-14T01:52:57.126Z,14.47
2023-02-14T01:56:24.105Z,15.00
2023-02-14T01:59:48.148Z,14.85
2023-02-14T02:02:48.192Z,13.53
2023-02-14T02:06:12.174Z,12.93
2023-02-14T02:09:26.180Z,12.75
2023-02-14T02:12:52.196Z,12.20
2023-02-14T02:16:04.163Z,11.20
2023-02-14T02:19:33.181Z,12.30
2023-02-14T02:22:50.278Z,13.55
2023-02-14T02:26:19.238Z,15.25
2023-02-14T02:29:36.254Z,13.45
2023-02-14T02:33:06.245Z,13.60
2023-02-14T02:36:22.225Z,14.40
2023-02-14T02:39:49.275Z,13.87
2023-02-14T02:43:13.306Z,12.40
2023-02-14T02:46:43.258Z,13.35
2023-02-14T02:50:14.164Z,13.87
2023-02-14T02:53:41.356Z,11.90
2023-02-14T02:57:06.335Z,11.17
2023-02-14T03:00:32.397Z,11.07
2023-02-14T03:03:50.740Z,12.97
2023-02-14T03:07:17.392Z,11.40
2023-02-14T03:10:43.366Z,12.83
2023-02-14T03:14:12.315Z,10.03
2023-02-14T03:17:24.361Z,15.40
2023-02-14T03:20:48.420Z,14.15
2023-02-14T03:24:00.424Z,10.57
2023-02-14T03:27:26.424Z,13.30
2023-02-14T03:30:50.615Z,11.60
2023-02-14T03:34:14.495Z,11.95
2023-02-14T03:37:26.493Z,11.77
2023-02-14T03:40:51.444Z,12.60
2023-02-14T03:44:17.515Z,13.37
2023-02-14T03:47:41.505Z,10.07
2023-02-14T03:50:53.496Z,13.40
2023-02-14T03:54:17.530Z,11.13
2023-02-14T03:57:29.527Z,11.83
2023-02-14T04:00:55.491Z,11.10
2023-02-14T04:04:23.528Z,12.95
2023-02-14T04:07:35.597Z,10.23
2023-02-14T04:10:47.531Z,10.90
2023-02-14T04:13:59.565Z,10.57
2023-02-14T04:17:31.370Z,9.60
2023-02-14T04:20:43.598Z,11.77
2023-02-14T04:24:07.630Z,11.77
2023-02-14T04:27:07.603Z,11.20
2023-02-14T04:30:35.639Z,12.53
2023-02-14T04:33:49.627Z,11.37
2023-02-14T04:37:01.606Z,9.37
2023-02-14T04:40:01.700Z,11.60
2023-02-14T04:43:13.697Z,12.07
2023-02-14T04:46:13.702Z,10.23
2023-02-14T04:49:39.687Z,13.77
2023-02-14T04:52:39.712Z,10.27
2023-02-14T04:55:51.792Z,9.27
2023-02-14T04:58:51.720Z,11.43
2023-02-14T05:02:04.777Z,10.57
2023-02-14T05:05:18.772Z,12.25
2023-02-14T05:08:31.766Z,11.37
2023-02-14T05:11:31.708Z,10.80
2023-02-14T05:14:43.785Z,10.40
2023-02-14T05:17:43.727Z,10.60
2023-02-14T05:21:09.808Z,9.60
2023-02-14T05:24:09.830Z,11.30
2023-02-14T05:27:21.900Z,9.00
2023-02-14T05:30:35.828Z,10.45
2023-02-14T05:33:48.862Z,8.85
2023-02-14T05:37:02.762Z,9.50
2023-02-14T05:40:14.838Z,11.33
2023-02-14T05:43:14.868Z,9.23
2023-02-14T05:46:26.815Z,10.90
2023-02-14T05:49:26.885Z,9.95
2023-02-14T05:52:52.953Z,10.87
2023-02-14T05:56:04.868Z,9.77
2023-02-14T05:59:19.918Z,9.40
2023-02-14T06:02:31.989Z,9.30
2023-02-14T06:05:55.888Z,8.30
2023-02-14T06:09:09.966Z,9.23
2023-02-14T06:12:21.955Z,10.20
2023-02-14T06:15:22.948Z,8.50
2023-02-14T06:18:35.003Z,9.10
2023-02-14T06:21:34.950Z,10.07
2023-02-14T06:25:00.994Z,9.95
2023-02-14T06:28:12.958Z,8.77
2023-02-14T06:31:41.116Z,8.53
2023-02-14T06:34:41.039Z,10.33
2023-02-14T06:38:04.993Z,9.63
2023-02-14T06:41:19.043Z,9.60
2023-02-14T06:44:43.001Z,11.10
2023-02-14T06:47:43.023Z,9.25
2023-02-14T06:50:55.099Z,9.45
2023-02-14T06:53:55.151Z,10.80
2023-02-14T06:57:21.086Z,9.00
2023-02-14T07:00:37.082Z,9.15
2023-02-14T07:03:52.051Z,9.90
2023-02-14T07:06:52.094Z,9.10
2023-02-14T07:10:05.132Z,8.85
2023-02-14T07:13:19.094Z,11.55
2023-02-14T07:16:31.143Z,9.70
2023-02-14T07:19:31.128Z,9.75
2023-02-14T07:22:43.167Z,8.83
2023-02-14T07:25:43.219Z,9.30
2023-02-14T07:29:08.099Z,8.77
2023-02-14T07:32:08.323Z,13.77
2023-02-14T07:35:22.132Z,9.55
2023-02-14T07:38:22.159Z,11.50
2023-02-14T07:41:34.283Z,9.67
2023-02-14T07:45:20.805Z,9.83
2023-02-14T07:48:18.195Z,8.55
2023-02-14T07:51:18.194Z,10.30
2023-02-14T07:54:30.268Z,9.97
2023-02-14T07:57:42.311Z,9.20
2023-02-14T08:01:08.301Z,10.50
2023-02-14T08:04:20.314Z,8.57
2023-02-14T08:07:20.287Z,8.40
2023-02-14T08:10:32.312Z,10.27
2023-02-14T08:13:44.344Z,10.73
2023-02-14T08:17:09.340Z,9.07
2023-02-14T08:20:09.363Z,7.47
2023-02-14T08:23:21.362Z,10.55
2023-02-14T08:26:33.309Z,9.65
2023-02-14T08:29:46.372Z,11.90
2023-02-14T08:33:00.469Z,11.77
2023-02-14T08:36:13.412Z,13.60
2023-02-14T08:39:25.371Z,12.93
2023-02-14T08:42:37.392Z,10.53
2023-02-14T08:45:37.555Z,12.35
2023-02-14T08:49:02.380Z,13.13
2023-02-14T08:52:02.499Z,11.37
2023-02-14T08:55:15.384Z,10.77
2023-02-14T08:58:27.392Z,13.00
2023-02-14T09:01:39.496Z,11.23
2023-02-14T09:04:53.502Z,11.50
2023-02-14T09:08:17.387Z,14.00
2023-02-14T09:11:33.490Z,13.35
2023-02-14T09:14:59.433Z,14.63
2023-02-14T09:18:11.497Z,13.80
2023-02-14T09:21:37.535Z,16.90
2023-02-14T09:24:37.525Z,18.10
2023-02-14T09:27:49.492Z,21.23
2023-02-14T09:30:49.589Z,26.67
2023-02-14T09:34:20.067Z,23.43
2023-02-14T09:37:41.032Z,24.23
2023-02-14T09:41:06.551Z,18.35
2023-02-14T09:44:21.570Z,11.17
2023-02-14T09:47:45.604Z,12.00
2023-02-14T09:50:57.719Z,14.47
2023-02-14T09:54:24.597Z,10.20
2023-02-14T09:57:36.628Z,10.10
2023-02-14T10:01:01.945Z,12.20
2023-02-14T10:04:30.668Z,15.80
2023-02-14T10:07:42.647Z,14.13
2023-02-14T10:11:07.655Z,14.17
2023-02-14T10:14:19.662Z,16.03
2023-02-14T10:17:43.681Z,10.95
2023-02-14T10:20:55.711Z,11.53
2023-02-14T10:24:21.732Z,14.50
2023-02-14T10:27:35.784Z,13.80
2023-02-14T10:31:01.137Z,12.73
2023-02-14T10:34:16.759Z,13.10
2023-02-14T10:37:45.693Z,15.10
2023-02-14T10:41:00.040Z,11.35
2023-02-14T10:44:28.802Z,16.43
2023-02-14T10:47:44.810Z,13.63
2023-02-14T10:51:10.752Z,19.27
2023-02-14T10:54:25.761Z,15.13
2023-02-14T10:57:49.812Z,16.70
2023-02-14T11:01:04.120Z,14.80
2023-02-14T11:04:27.800Z,16.45
2023-02-14T11:07:39.816Z,14.77
2023-02-14T11:11:04.012Z,14.40
2023-02-14T11:14:17.315Z,15.83
2023-02-14T11:17:51.994Z,17.40
2023-02-14T11:20:51.901Z,15.03
2023-02-14T11:24:15.918Z,18.53
2023-02-14T11:27:27.913Z,16.23
2023-02-14T11:30:51.976Z,18.17
2023-02-14T11:34:05.189Z,21.20
2023-02-14T11:37:28.989Z,16.05
2023-02-14T11:40:47.881Z,21.00
2023-02-14T11:44:03.900Z,13.60
2023-02-14T11:47:15.945Z,19.47
2023-02-14T11:50:46.911Z,22.33
2023-02-14T11:54:00.045Z,22.60
2023-02-14T11:57:25.905Z,23.10
2023-02-14T12:00:40.055Z,23.10
2023-02-14T12:04:04.021Z,17.40
2023-02-14T12:07:18.028Z,21.53
2023-02-14T12:10:43.058Z,18.80
2023-02-14T12:13:55.090Z,26.15
2023-02-14T12:17:20.075Z,21.43
2023-02-14T12:20:33.199Z,25.60
2023-02-14T12:23:59.104Z,26.70
2023-02-14T12:27:11.168Z,21.60
2023-02-14T12:30:36.100Z,27.63
2023-02-14T12:33:37.036Z,24.43
2023-02-14T12:37:07.142Z,21.70
2023-02-14T12:40:24.109Z,26.87
2023-02-14T12:43:56.150Z,22.00
2023-02-14T12:47:11.169Z,22.27
2023-02-14T12:50:44.114Z,23.00
2023-02-14T12:53:58.186Z,24.30
2023-02-14T12:57:24.175Z,24.85
2023-02-14T13:00:44.126Z,21.60
2023-02-14T13:04:23.255Z,24.87
2023-02-14T13:07:35.192Z,24.33
2023-02-14T13:11:03.278Z,25.45
2023-02-14T13:14:21.304Z,22.77
2023-02-14T13:17:47.234Z,22.10
2023-02-14T13:21:02.461Z,21.10
2023-02-14T13:24:29.480Z,27.77
2023-02-14T13:27:41.265Z,24.43
2023-02-14T13:31:07.386Z,21.35
2023-02-14T13:34:19.356Z,22.13
2023-02-14T13:37:43.281Z,27.90
2023-02-14T13:40:55.280Z,22.90
2023-02-14T13:44:19.300Z,22.30
2023-02-14T13:47:32.333Z,25.37
2023-02-14T13:50:56.377Z,25.55
2023-02-14T13:54:08.350Z,21.07
2023-02-14T13:57:38.438Z,24.30
2023-02-14T14:01:03.327Z,22.70
2023-02-14T14:04:29.393Z,23.45
2023-02-14T14:07:43.393Z,22.80
2023-02-14T14:11:07.429Z,22.45
2023-02-14T14:14:20.353Z,22.90
2023-02-14T14:17:47.448Z,22.13
2023-02-14T14:21:04.468Z,22.13
2023-02-14T14:24:39.452Z,24.47
2023-02-14T14:27:52.471Z,26.67
2023-02-14T14:31:16.590Z,24.60
2023-02-14T14:34:16.445Z,21.57
2023-02-14T14:37:43.409Z,19.90
2023-02-14T14:40:55.548Z,23.97
2023-02-14T14:44:19.536Z,22.50
2023-02-14T14:47:31.522Z,26.30
2023-02-14T14:50:55.722Z,22.07
2023-02-14T14:54:09.494Z,22.73
2023-02-14T14:57:36.551Z,23.73
2023-02-14T15:00:49.592Z,24.50
2023-02-14T15:04:14.612Z,23.15
2023-02-14T15:07:41.577Z,23.40
2023-02-14T15:11:07.585Z,22.70
2023-02-14T15:14:06.713Z,23.30
2023-02-14T15:17:30.562Z,29.20
2023-02-14T15:20:42.601Z,26.27
2023-02-14T15:24:10.641Z,23.35
2023-02-14T15:27:24.644Z,20.43
2023-02-14T15:30:48.773Z,24.43
2023-02-14T15:34:00.656Z,25.30
2023-02-14T15:37:24.640Z,25.80
2023-02-14T15:40:40.714Z,25.77
2023-02-14T15:44:06.708Z,24.43
2023-02-14T15:47:19.662Z,23.45
2023-02-14T15:50:42.740Z,24.80
2023-02-14T15:53:56.722Z,21.97
2023-02-14T15:57:08.784Z,22.05
2023-02-14T16:00:22.825Z,22.40
2023-02-14T16:03:46.724Z,22.25
2023-02-14T16:06:59.752Z,21.33
2023-02-14T16:10:38.738Z,23.07
2023-02-14T16:13:53.761Z,24.40
2023-02-14T16:17:23.777Z,24.87
2023-02-14T16:20:45.928Z,25.80
2023-02-14T16:24:09.810Z,22.77
2023-02-14T16:27:09.864Z,21.90
2023-02-14T16:30:39.880Z,23.53
2023-02-14T16:33:55.318Z,22.63
2023-02-14T16:37:18.897Z,24.97
2023-02-14T16:40:31.915Z,21.37
2023-02-14T16:43:43.887Z,24.55
2023-02-14T16:46:55.939Z,26.37
2023-02-14T16:50:21.919Z,24.43
2023-02-14T16:53:36.919Z,34.35
2023-02-14T16:57:01.887Z,27.75
2023-02-14T17:00:13.939Z,24.30
2023-02-14T17:03:25.874Z,23.40
2023-02-14T17:06:40.898Z,23.40
2023-02-14T17:10:05.017Z,25.05
2023-02-14T17:13:16.914Z,29.93
2023-02-14T17:16:41.071Z,32.50
2023-02-14T17:19:53.198Z,22.50
2023-02-14T17:23:18.024Z,33.23
2023-02-14T17:26:18.992Z,23.50
2023-02-14T17:29:31.032Z,20.70
2023-02-14T17:32:31.029Z,29.27
2023-02-14T17:35:55.981Z,24.45
2023-02-14T17:39:10.076Z,24.85
2023-02-14T17:42:22.073Z,21.90
2023-02-14T17:45:23.049Z,21.95
2023-02-14T17:48:35.082Z,22.63
2023-02-14T17:51:47.023Z,20.00
2023-02-14T17:55:13.030Z,21.95
2023-02-14T17:58:13.107Z,17.95
2023-02-14T18:01:25.185Z,17.53
2023-02-14T18:04:49.094Z,20.30
2023-02-14T18:07:50.151Z,19.10
2023-02-14T18:11:16.103Z,17.10
2023-02-14T18:14:16.135Z,17.15
2023-02-14T18:17:28.140Z,17.27
2023-02-14T18:20:28.107Z,16.10
2023-02-14T18:23:52.196Z,19.17
2023-02-14T18:27:06.163Z,24.83
2023-02-14T18:30:20.344Z,17.87
2023-02-14T18:33:20.207Z,18.60
2023-02-14T18:36:44.237Z,24.55
2023-02-14T18:39:45.233Z,17.47
2023-02-14T18:43:10.223Z,16.37
2023-02-14T18:46:26.278Z,22.07
2023-02-14T18:49:39.251Z,19.90
2023-02-14T18:52:39.268Z,14.87
2023-02-14T18:55:52.315Z,18.95
2023-02-14T18:59:06.266Z,15.00
2023-02-14T19:02:19.307Z,15.77
2023-02-14T19:05:20.344Z,21.87
2023-02-14T19:08:32.366Z,18.75
2023-02-14T19:11:44.337Z,16.80
2023-02-14T19:15:10.376Z,17.73
2023-02-14T19:18:10.342Z,22.85
2023-02-14T19:21:35.384Z,26.85
2023-02-14T19:24:35.402Z,24.25
2023-02-14T19:27:59.416Z,20.17
2023-02-14T19:31:13.545Z,22.27
2023-02-14T19:34:39.445Z,18.67
2023-02-14T19:37:39.407Z,27.67
2023-02-14T19:41:09.442Z,18.15
2023-02-14T19:44:22.729Z,16.27
2023-02-14T19:47:47.626Z,17.27
2023-02-14T19:50:46.448Z,14.90
2023-02-14T19:53:58.484Z,14.37
2023-02-14T19:57:10.471Z,13.90
2023-02-14T20:00:23.489Z,14.73
2023-02-14T20:03:49.466Z,15.10
2023-02-14T20:07:01.466Z,17.00
2023-02-14T20:10:13.515Z,17.80
2023-02-14T20:13:13.568Z,15.87
2023-02-14T20:16:25.615Z,17.67
2023-02-14T20:19:39.503Z,16.33
2023-02-14T20:23:04.566Z,16.40
2023-02-14T20:26:04.546Z,13.90
2023-02-14T20:29:29.533Z,15.87
2023-02-14T20:32:29.611Z,15.70
2023-02-14T20:35:54.548Z,15.85
2023-02-14T20:38:54.680Z,18.65
2023-02-14T20:42:07.613Z,16.73
2023-02-14T20:45:07.687Z,14.77
2023-02-14T20:48:20.611Z,16.63
2023-02-14T20:51:36.636Z,17.30
2023-02-14T20:55:00.695Z,15.00
2023-02-14T20:58:00.614Z,14.50
2023-02-14T21:01:29.653Z,15.95
2023-02-14T21:04:32.660Z,16.53
2023-02-14T21:07:59.669Z,17.33
2023-02-14T21:11:00.010Z,15.50
2023-02-14T21:14:24.774Z,15.25
2023-02-14T21:17:24.718Z,17.35
2023-02-14T21:20:36.757Z,12.05
2023-02-14T21:23:50.703Z,14.60
2023-02-14T21:27:02.753Z,15.17
2023-02-14T21:30:02.777Z,16.30
2023-02-14T21:33:15.803Z,14.45
2023-02-14T21:36:30.785Z,17.60
2023-02-14T21:39:56.759Z,16.27
2023-02-14T21:42:56.796Z,17.25
2023-02-14T21:46:21.889Z,15.43
2023-02-14T21:49:39.184Z,16.63
2023-02-14T21:52:52.840Z,15.87
2023-02-14T21:56:06.831Z,16.65
2023-02-14T21:59:31.808Z,15.20
2023-02-14T22:02:34.899Z,16.35
2023-02-14T22:05:46.856Z,16.07
2023-02-14T22:08:58.885Z,18.97
2023-02-14T22:12:24.882Z,17.70
2023-02-14T22:15:37.001Z,17.25
2023-02-14T22:19:00.920Z,15.30
2023-02-14T22:22:12.871Z,17.20
2023-02-14T22:25:24.865Z,14.95
2023-02-14T22:28:38.875Z,13.80
2023-02-14T22:32:02.996Z,19.60
2023-02-14T22:35:02.890Z,18.53
2023-02-14T22:38:14.949Z,14.95
2023-02-14T22:41:29.926Z,15.77
2023-02-14T22:44:54.954Z,15.00
2023-02-14T22:47:55.017Z,16.40
2023-02-14T22:51:07.010Z,17.33
2023-02-14T22:54:19.013Z,16.67
2023-02-14T22:57:32.048Z,15.93
2023-02-14T23:00:45.982Z,16.43
2023-02-14T23:04:10.021Z,14.53
2023-02-14T23:07:22.094Z,16.93
2023-02-14T23:10:34.061Z,18.33
2023-02-14T23:13:45.287Z,25.40
2023-02-14T23:17:16.666Z,20.30
2023-02-14T23:20:31.816Z,16.53
2023-02-14T23:23:56.072Z,18.03
2023-02-14T23:27:02.140Z,19.65
2023-02-14T23:30:28.255Z,16.55
2023-02-14T23:33:42.156Z,15.07
2023-02-14T23:36:55.184Z,18.30
2023-02-14T23:39:55.153Z,15.53
2023-02-14T23:43:07.158Z,15.23
2023-02-14T23:46:07.278Z,18.13
2023-02-14T23:49:34.212Z,16.73
2023-02-14T23:52:34.176Z,15.30
2023-02-14T23:55:46.197Z,15.70
2023-02-14T23:58:46.223Z,17.07
